createdAt,value
2016-11-14T00:00:13.844Z,962.8
2016-11-14T00:01:13.857Z,962.81
2016-11-14T00:02:13.891Z,962.77
2016-11-14T00:03:13.883Z,962.76
2016-11-14T00:04:13.895Z,962.74
2016-11-14T00:05:13.908Z,962.72
2016-11-14T00:06:13.923Z,962.75
2016-11-14T00:07:13.936Z,962.75
2016-11-14T00:08:13.947Z,962.72
2016-11-14T00:09:13.960Z,962.75
2016-11-14T00:10:13.974Z,962.79
2016-11-14T00:11:13.987Z,962.78
2016-11-14T00:12:13.999Z,962.74
2016-11-14T00:13:14.012Z,962.76
2016-11-14T00:14:14.025Z,962.72
2016-11-14T00:15:14.038Z,962.79
2016-11-14T00:16:14.050Z,962.76
2016-11-14T00:17:14.064Z,962.76
2016-11-14T00:18:14.079Z,962.8
2016-11-14T00:19:14.089Z,962.79
2016-11-14T00:20:14.103Z,962.78
2016-11-14T00:21:14.116Z,962.76
2016-11-14T00:22:14.128Z,962.72
2016-11-14T00:23:14.141Z,962.76
2016-11-14T00:24:14.155Z,962.74
2016-11-14T00:25:14.167Z,962.77
2016-11-14T00:26:14.180Z,962.75
2016-11-14T00:27:14.193Z,962.79
2016-11-14T00:28:14.206Z,962.77
2016-11-14T00:29:14.219Z,962.82
2016-11-14T00:30:14.231Z,962.77
2016-11-14T00:31:14.247Z,962.78
2016-11-14T00:32:14.258Z,962.82
2016-11-14T00:33:14.268Z,962.75
2016-11-14T00:34:14.283Z,962.77
2016-11-14T00:35:14.296Z,962.74
2016-11-14T00:36:14.309Z,962.75
2016-11-14T00:37:14.321Z,962.82
2016-11-14T00:38:14.334Z,962.82
2016-11-14T00:39:14.347Z,962.78
2016-11-14T00:40:14.359Z,962.8
2016-11-14T00:41:14.371Z,962.78
2016-11-14T00:42:14.385Z,962.82
2016-11-14T00:43:14.398Z,962.82
2016-11-14T00:44:14.411Z,962.83
2016-11-14T00:45:14.433Z,962.81
2016-11-14T00:46:14.437Z,962.82
2016-11-14T00:47:14.450Z,962.81
2016-11-14T00:48:14.462Z,962.89
2016-11-14T00:49:14.475Z,962.87
2016-11-14T00:50:14.487Z,962.86
2016-11-14T00:51:14.499Z,962.85
2016-11-14T00:52:14.513Z,962.83
2016-11-14T00:53:14.526Z,962.89
2016-11-14T00:54:14.544Z,962.9
2016-11-14T00:55:14.551Z,962.92
2016-11-14T00:56:14.564Z,962.9
2016-11-14T00:57:14.578Z,962.92
2016-11-14T00:58:14.591Z,962.9
2016-11-14T00:59:14.602Z,962.91
2016-11-14T01:00:14.615Z,962.91
2016-11-14T01:01:14.627Z,962.9
2016-11-14T01:02:14.640Z,962.94
2016-11-14T01:03:14.654Z,962.93
2016-11-14T01:04:14.666Z,962.92
2016-11-14T01:05:14.678Z,962.92
2016-11-14T01:06:14.690Z,962.97
2016-11-14T01:07:14.722Z,962.98
2016-11-14T01:08:14.717Z,962.91
2016-11-14T01:09:14.730Z,962.96
2016-11-14T01:10:14.784Z,962.98
2016-11-14T01:11:14.754Z,962.96
2016-11-14T01:12:14.767Z,962.99
2016-11-14T01:13:14.780Z,962.96
2016-11-14T01:14:14.792Z,962.91
2016-11-14T01:15:14.805Z,963
2016-11-14T01:16:14.818Z,962.99
2016-11-14T01:17:14.830Z,963.02
2016-11-14T01:18:14.842Z,962.97
2016-11-14T01:19:14.856Z,962.98
2016-11-14T01:20:14.869Z,962.99
2016-11-14T01:21:14.880Z,962.97
2016-11-14T01:22:14.894Z,962.94
2016-11-14T01:23:14.907Z,962.92
2016-11-14T01:24:14.921Z,962.97
2016-11-14T01:25:14.932Z,962.99
2016-11-14T01:26:14.945Z,963.04
2016-11-14T01:27:14.956Z,963.05
2016-11-14T01:28:14.976Z,963.01
2016-11-14T01:29:14.983Z,963.05
2016-11-14T01:30:14.996Z,963.08
2016-11-14T01:31:15.010Z,963.08
2016-11-14T01:32:15.020Z,963.06
2016-11-14T01:33:15.033Z,963.11
2016-11-14T01:34:15.046Z,963.08
2016-11-14T01:35:15.060Z,963.13
2016-11-14T01:36:15.073Z,963.12
2016-11-14T01:37:15.086Z,963.12
2016-11-14T01:38:15.099Z,963.12
2016-11-14T01:39:15.109Z,963.13
2016-11-14T01:40:15.123Z,963.09
2016-11-14T01:41:15.137Z,963.05
2016-11-14T01:42:15.149Z,963.07
2016-11-14T01:43:15.162Z,963.09
2016-11-14T01:44:15.174Z,963.06
2016-11-14T01:45:15.187Z,963.15
2016-11-14T01:46:15.200Z,963.01
2016-11-14T01:47:15.212Z,963.05
2016-11-14T01:48:15.225Z,963.06
2016-11-14T01:49:15.237Z,963.1
2016-11-14T01:50:15.263Z,963.11
2016-11-14T01:51:15.263Z,963.13
2016-11-14T01:52:15.276Z,963.12
2016-11-14T01:53:15.289Z,963.14
2016-11-14T01:54:15.301Z,963.06
2016-11-14T01:55:15.314Z,963.1
2016-11-14T01:56:15.327Z,963.07
2016-11-14T01:57:15.340Z,963.11
2016-11-14T01:58:15.352Z,963.13
2016-11-14T01:59:15.365Z,963.08
2016-11-14T02:00:15.379Z,963.08
2016-11-14T02:01:15.391Z,963.09
2016-11-14T02:02:15.402Z,963.08
2016-11-14T02:03:15.415Z,963.07
2016-11-14T02:04:15.427Z,963.05
2016-11-14T02:05:15.440Z,963.03
2016-11-14T02:06:15.453Z,963.03
2016-11-14T02:07:15.466Z,963
2016-11-14T02:08:15.479Z,963
2016-11-14T02:09:15.490Z,962.99
2016-11-14T02:10:15.503Z,963.04
2016-11-14T02:11:15.519Z,963.1
2016-11-14T02:12:15.529Z,963.13
2016-11-14T02:13:15.541Z,963.11
2016-11-14T02:14:15.554Z,963.13
2016-11-14T02:15:15.567Z,963.14
2016-11-14T02:16:15.580Z,963.12
2016-11-14T02:17:15.592Z,963.16
2016-11-14T02:18:15.605Z,963.12
2016-11-14T02:19:15.618Z,963.11
2016-11-14T02:20:15.630Z,963.15
2016-11-14T02:21:15.643Z,963.09
2016-11-14T02:22:15.655Z,963.14
2016-11-14T02:23:15.667Z,963.15
2016-11-14T02:24:15.680Z,963.14
2016-11-14T02:25:15.693Z,963.1
2016-11-14T02:26:15.707Z,963.14
2016-11-14T02:27:15.718Z,963.12
2016-11-14T02:28:15.730Z,963.15
2016-11-14T02:29:15.743Z,963.14
2016-11-14T02:30:15.759Z,963.15
2016-11-14T02:31:15.767Z,963.14
2016-11-14T02:32:15.843Z,963.19
2016-11-14T02:33:15.805Z,963.18
2016-11-14T02:34:15.806Z,963.21
2016-11-14T02:35:15.818Z,963.21
2016-11-14T02:36:15.831Z,963.23
2016-11-14T02:37:15.843Z,963.22
2016-11-14T02:38:15.855Z,963.23
2016-11-14T02:39:15.868Z,963.2
2016-11-14T02:40:15.881Z,963.23
2016-11-14T02:41:15.893Z,963.24
2016-11-14T02:42:15.905Z,963.29
2016-11-14T02:43:15.918Z,963.29
2016-11-14T02:44:15.934Z,963.28
2016-11-14T02:45:15.960Z,963.31
2016-11-14T02:46:15.955Z,963.32
2016-11-14T02:47:15.968Z,963.27
2016-11-14T02:48:15.981Z,963.24
2016-11-14T02:49:15.993Z,963.25
2016-11-14T02:50:16.005Z,963.24
2016-11-14T02:51:16.018Z,963.23
2016-11-14T02:52:16.035Z,963.24
2016-11-14T02:53:16.042Z,963.21
2016-11-14T02:54:16.057Z,963.21
2016-11-14T02:55:16.068Z,963.23
2016-11-14T02:56:16.081Z,963.24
2016-11-14T02:57:16.093Z,963.24
2016-11-14T02:58:16.106Z,963.25
2016-11-14T02:59:16.118Z,963.27
2016-11-14T03:00:16.131Z,963.29
2016-11-14T03:01:16.145Z,963.26
2016-11-14T03:02:16.160Z,963.22
2016-11-14T03:03:16.167Z,963.23
2016-11-14T03:04:16.180Z,963.31
2016-11-14T03:05:16.193Z,963.3
2016-11-14T03:06:16.206Z,963.33
2016-11-14T03:07:16.217Z,963.35
2016-11-14T03:08:16.231Z,963.43
2016-11-14T03:09:16.245Z,963.45
2016-11-14T03:10:16.257Z,963.49
2016-11-14T03:11:16.269Z,963.43
2016-11-14T03:12:16.281Z,963.44
2016-11-14T03:13:16.295Z,963.42
2016-11-14T03:14:16.307Z,963.44
2016-11-14T03:15:16.318Z,963.44
2016-11-14T03:16:16.341Z,963.48
2016-11-14T03:17:16.345Z,963.53
2016-11-14T03:18:16.356Z,963.51
2016-11-14T03:19:16.369Z,963.54
2016-11-14T03:20:16.383Z,963.57
2016-11-14T03:21:16.394Z,963.57
2016-11-14T03:22:16.407Z,963.59
2016-11-14T03:23:16.421Z,963.58
2016-11-14T03:24:16.435Z,963.61
2016-11-14T03:25:16.444Z,963.62
2016-11-14T03:26:16.458Z,963.64
2016-11-14T03:27:16.470Z,963.64
2016-11-14T03:28:16.485Z,963.61
2016-11-14T03:29:16.496Z,963.62
2016-11-14T03:30:16.532Z,963.64
2016-11-14T03:31:16.522Z,963.63
2016-11-14T03:32:16.533Z,963.66
2016-11-14T03:33:16.547Z,963.67
2016-11-14T03:34:16.558Z,963.72
2016-11-14T03:35:16.572Z,963.72
2016-11-14T03:36:16.584Z,963.74
2016-11-14T03:37:16.597Z,963.74
2016-11-14T03:38:16.608Z,963.72
2016-11-14T03:39:16.622Z,963.72
2016-11-14T03:40:16.633Z,963.71
2016-11-14T03:41:16.646Z,963.73
2016-11-14T03:42:16.659Z,963.73
2016-11-14T03:43:16.671Z,963.71
2016-11-14T03:44:16.684Z,963.73
2016-11-14T03:45:16.697Z,963.74
2016-11-14T03:46:16.710Z,963.76
2016-11-14T03:47:16.721Z,963.77
2016-11-14T03:48:16.734Z,963.77
2016-11-14T03:49:16.748Z,963.78
2016-11-14T03:50:16.759Z,963.75
2016-11-14T03:51:16.771Z,963.79
2016-11-14T03:52:16.783Z,963.76
2016-11-14T03:53:16.795Z,963.73
2016-11-14T03:54:16.808Z,963.74
2016-11-14T03:55:16.820Z,963.71
2016-11-14T03:56:16.833Z,963.75
2016-11-14T03:57:16.846Z,963.75
2016-11-14T03:58:16.857Z,963.74
2016-11-14T03:59:16.884Z,963.77
2016-11-14T04:00:16.883Z,963.78
2016-11-14T04:01:16.896Z,963.76
2016-11-14T04:02:16.907Z,963.75
2016-11-14T04:03:16.920Z,963.75
2016-11-14T04:04:16.932Z,963.77
2016-11-14T04:05:16.945Z,963.73
2016-11-14T04:06:16.960Z,963.76
2016-11-14T04:07:16.969Z,963.75
2016-11-14T04:08:16.982Z,963.76
2016-11-14T04:09:16.994Z,963.78
2016-11-14T04:10:17.006Z,963.75
2016-11-14T04:11:17.019Z,963.77
2016-11-14T04:12:17.032Z,963.77
2016-11-14T04:13:17.044Z,963.75
2016-11-14T04:14:17.056Z,963.75
2016-11-14T04:15:17.069Z,963.73
2016-11-14T04:16:17.080Z,963.73
2016-11-14T04:17:17.093Z,963.71
2016-11-14T04:18:17.108Z,963.74
2016-11-14T04:19:17.117Z,963.74
2016-11-14T04:20:17.138Z,963.76
2016-11-14T04:21:17.142Z,963.77
2016-11-14T04:22:17.155Z,963.74
2016-11-14T04:23:17.168Z,963.78
2016-11-14T04:24:17.180Z,963.82
2016-11-14T04:25:17.191Z,963.79
2016-11-14T04:26:17.204Z,963.8
2016-11-14T04:27:17.220Z,963.74
2016-11-14T04:28:17.228Z,963.75
2016-11-14T04:29:17.241Z,963.72
2016-11-14T04:30:17.256Z,963.76
2016-11-14T04:31:17.267Z,963.76
2016-11-14T04:32:17.279Z,963.81
2016-11-14T04:33:17.291Z,963.89
2016-11-14T04:34:17.306Z,963.87
2016-11-14T04:35:17.315Z,963.94
2016-11-14T04:36:17.327Z,963.89
2016-11-14T04:37:17.339Z,963.91
2016-11-14T04:38:17.351Z,963.93
2016-11-14T04:39:17.363Z,963.92
2016-11-14T04:40:17.377Z,963.93
2016-11-14T04:41:17.388Z,963.98
2016-11-14T04:42:17.401Z,963.97
2016-11-14T04:43:17.414Z,963.94
2016-11-14T04:44:17.426Z,963.93
2016-11-14T04:45:17.438Z,963.93
2016-11-14T04:46:17.451Z,963.92
2016-11-14T04:47:17.464Z,963.92
2016-11-14T04:48:17.476Z,963.9
2016-11-14T04:49:17.488Z,963.88
2016-11-14T04:50:17.500Z,963.9
2016-11-14T04:51:17.513Z,963.91
2016-11-14T04:52:17.525Z,963.91
2016-11-14T04:53:17.538Z,963.94
2016-11-14T04:54:17.549Z,963.91
2016-11-14T04:55:17.561Z,963.91
2016-11-14T04:56:17.574Z,963.94
2016-11-14T04:57:17.586Z,963.92
2016-11-14T04:58:17.599Z,963.9
2016-11-14T04:59:17.611Z,963.93
2016-11-14T05:00:17.622Z,963.92
2016-11-14T05:01:17.634Z,963.95
2016-11-14T05:02:17.649Z,963.91
2016-11-14T05:03:17.680Z,963.94
2016-11-14T05:04:17.682Z,963.91
2016-11-14T05:05:17.684Z,963.9
2016-11-14T05:06:17.696Z,963.92
2016-11-14T05:07:17.708Z,963.92
2016-11-14T05:08:17.720Z,963.92
2016-11-14T05:09:17.734Z,963.92
2016-11-14T05:10:17.745Z,963.95
2016-11-14T05:11:17.757Z,963.91
2016-11-14T05:12:17.769Z,963.93
2016-11-14T05:13:17.781Z,963.94
2016-11-14T05:14:17.794Z,963.92
2016-11-14T05:15:17.804Z,963.96
2016-11-14T05:16:17.818Z,963.95
2016-11-14T05:17:17.830Z,963.95
2016-11-14T05:18:17.841Z,963.98
2016-11-14T05:19:17.855Z,963.98
2016-11-14T05:20:17.867Z,963.95
2016-11-14T05:21:17.879Z,963.98
2016-11-14T05:22:17.890Z,964.04
2016-11-14T05:23:17.903Z,964.06
2016-11-14T05:24:17.915Z,964.02
2016-11-14T05:25:17.928Z,964.05
2016-11-14T05:26:17.939Z,964.04
2016-11-14T05:27:17.952Z,964.08
2016-11-14T05:28:17.965Z,964.09
2016-11-14T05:29:17.975Z,964.12
2016-11-14T05:30:17.988Z,964.07
2016-11-14T05:31:18.000Z,964.08
2016-11-14T05:32:18.029Z,964.06
2016-11-14T05:33:18.025Z,964.09
2016-11-14T05:34:18.038Z,964.11
2016-11-14T05:35:18.049Z,964.1
2016-11-14T05:36:18.062Z,964.1
2016-11-14T05:37:18.073Z,964.12
2016-11-14T05:38:18.085Z,964.1
2016-11-14T05:39:18.098Z,964.1
2016-11-14T05:40:18.110Z,964.15
2016-11-14T05:41:18.122Z,964.17
2016-11-14T05:42:18.135Z,964.19
2016-11-14T05:43:18.147Z,964.17
2016-11-14T05:44:18.158Z,964.13
2016-11-14T05:45:18.171Z,964.16
2016-11-14T05:46:18.184Z,964.24
2016-11-14T05:47:18.196Z,964.23
2016-11-14T05:48:18.207Z,964.28
2016-11-14T05:49:18.220Z,964.33
2016-11-14T05:50:18.233Z,964.29
2016-11-14T05:51:18.244Z,964.32
2016-11-14T05:52:18.257Z,964.33
2016-11-14T05:53:18.286Z,964.31
2016-11-14T05:54:18.281Z,964.3
2016-11-14T05:55:18.292Z,964.32
2016-11-14T05:56:18.305Z,964.34
2016-11-14T05:57:18.317Z,964.3
2016-11-14T05:58:18.330Z,964.31
2016-11-14T05:59:18.342Z,964.34
2016-11-14T06:00:18.356Z,964.35
2016-11-14T06:01:18.368Z,964.32
2016-11-14T06:02:18.378Z,964.35
2016-11-14T06:03:18.392Z,964.34
2016-11-14T06:04:18.403Z,964.33
2016-11-14T06:05:18.415Z,964.35
2016-11-14T06:06:18.427Z,964.35
2016-11-14T06:07:18.440Z,964.33
2016-11-14T06:08:18.452Z,964.33
2016-11-14T06:09:18.464Z,964.32
2016-11-14T06:10:18.476Z,964.31
2016-11-14T06:11:18.489Z,964.32
2016-11-14T06:12:18.500Z,964.37
2016-11-14T06:13:18.512Z,964.32
2016-11-14T06:14:18.525Z,964.33
2016-11-14T06:15:18.537Z,964.38
2016-11-14T06:16:18.550Z,964.32
2016-11-14T06:17:18.560Z,964.37
2016-11-14T06:18:18.573Z,964.4
2016-11-14T06:19:18.585Z,964.38
2016-11-14T06:20:18.598Z,964.35
2016-11-14T06:21:18.610Z,964.41
2016-11-14T06:22:18.635Z,964.42
2016-11-14T06:23:18.636Z,964.4
2016-11-14T06:24:18.646Z,964.46
2016-11-14T06:25:18.660Z,964.4
2016-11-14T06:26:18.672Z,964.43
2016-11-14T06:27:18.684Z,964.45
2016-11-14T06:28:18.696Z,964.46
2016-11-14T06:29:18.710Z,964.47
2016-11-14T06:30:18.720Z,964.46
2016-11-14T06:31:18.731Z,964.46
2016-11-14T06:32:18.744Z,964.48
2016-11-14T06:33:18.757Z,964.49
2016-11-14T06:34:18.770Z,964.47
2016-11-14T06:35:18.780Z,964.51
2016-11-14T06:36:18.793Z,964.57
2016-11-14T06:37:18.805Z,964.58
2016-11-14T06:38:18.817Z,964.62
2016-11-14T06:39:18.829Z,964.62
2016-11-14T06:40:18.876Z,964.62
2016-11-14T06:41:18.855Z,964.62
2016-11-14T06:42:18.865Z,964.65
2016-11-14T06:43:18.888Z,964.63
2016-11-14T06:44:18.941Z,964.61
2016-11-14T06:45:18.903Z,964.61
2016-11-14T06:46:18.915Z,964.65
2016-11-14T06:47:18.927Z,964.66
2016-11-14T06:48:18.940Z,964.65
2016-11-14T06:49:18.952Z,964.66
2016-11-14T06:50:18.967Z,964.66
2016-11-14T06:51:18.975Z,964.68
2016-11-14T06:52:18.988Z,964.72
2016-11-14T06:53:19.000Z,964.72
2016-11-14T06:54:19.011Z,964.71
2016-11-14T06:55:19.024Z,964.71
2016-11-14T06:56:19.037Z,964.77
2016-11-14T06:57:19.048Z,964.75
2016-11-14T06:58:19.061Z,964.71
2016-11-14T06:59:19.073Z,964.76
2016-11-14T07:00:19.085Z,964.78
2016-11-14T07:01:19.097Z,964.77
2016-11-14T07:02:19.108Z,964.79
2016-11-14T07:03:19.121Z,964.77
2016-11-14T07:04:19.132Z,964.78
2016-11-14T07:05:19.146Z,964.79
2016-11-14T07:06:19.157Z,964.79
2016-11-14T07:07:19.171Z,964.83
2016-11-14T07:08:19.182Z,964.85
2016-11-14T07:09:19.193Z,964.83
2016-11-14T07:10:19.206Z,964.87
2016-11-14T07:11:19.218Z,964.87
2016-11-14T07:12:19.238Z,964.9
2016-11-14T07:13:19.242Z,964.91
2016-11-14T07:14:19.256Z,964.93
2016-11-14T07:15:19.266Z,964.98
2016-11-14T07:16:19.278Z,964.97
2016-11-14T07:17:19.291Z,964.98
2016-11-14T07:18:19.303Z,964.98
2016-11-14T07:19:19.318Z,964.98
2016-11-14T07:20:19.325Z,964.98
2016-11-14T07:21:19.339Z,964.97
2016-11-14T07:22:19.352Z,964.97
2016-11-14T07:23:19.363Z,964.99
2016-11-14T07:24:19.374Z,965.07
2016-11-14T07:25:19.388Z,965.1
2016-11-14T07:26:19.399Z,965.05
2016-11-14T07:27:19.411Z,965.01
2016-11-14T07:28:19.424Z,965.04
2016-11-14T07:29:19.436Z,965.06
2016-11-14T07:30:19.448Z,965.03
2016-11-14T07:31:19.460Z,965.05
2016-11-14T07:32:19.473Z,965.02
2016-11-14T07:33:19.491Z,965.08
2016-11-14T07:34:19.497Z,965.06
2016-11-14T07:35:19.509Z,965.03
2016-11-14T07:36:19.523Z,965.04
2016-11-14T07:37:19.531Z,965.07
2016-11-14T07:38:19.549Z,965.06
2016-11-14T07:39:19.557Z,965.07
2016-11-14T07:40:19.570Z,965.02
2016-11-14T07:41:19.581Z,965.08
2016-11-14T07:42:19.594Z,965.05
2016-11-14T07:43:19.606Z,965.13
2016-11-14T07:44:19.618Z,965.1
2016-11-14T07:45:19.630Z,965.19
2016-11-14T07:46:19.642Z,965.15
2016-11-14T07:47:19.655Z,965.16
2016-11-14T07:48:19.665Z,965.22
2016-11-14T07:49:19.679Z,965.2
2016-11-14T07:50:19.692Z,965.25
2016-11-14T07:51:19.703Z,965.24
2016-11-14T07:52:19.715Z,965.22
2016-11-14T07:53:19.729Z,965.24
2016-11-14T07:54:19.741Z,965.21
2016-11-14T07:55:19.752Z,965.19
2016-11-14T07:56:19.765Z,965.26
2016-11-14T07:57:19.776Z,965.25
2016-11-14T07:58:19.789Z,965.3
2016-11-14T07:59:19.804Z,965.3
2016-11-14T08:00:19.814Z,965.33
2016-11-14T08:01:19.826Z,965.36
2016-11-14T08:02:19.843Z,965.38
2016-11-14T08:03:19.850Z,965.37
2016-11-14T08:04:19.862Z,965.4
2016-11-14T08:05:19.874Z,965.4
2016-11-14T08:06:19.887Z,965.42
2016-11-14T08:07:19.899Z,965.43
2016-11-14T08:08:19.911Z,965.48
2016-11-14T08:09:19.924Z,965.49
2016-11-14T08:10:19.937Z,965.49
2016-11-14T08:11:19.949Z,965.49
2016-11-14T08:12:19.961Z,965.52
2016-11-14T08:13:19.973Z,965.55
2016-11-14T08:14:19.984Z,965.53
2016-11-14T08:15:19.998Z,965.54
2016-11-14T08:16:20.032Z,965.54
2016-11-14T08:17:20.021Z,965.55
2016-11-14T08:18:20.033Z,965.55
2016-11-14T08:19:20.045Z,965.51
2016-11-14T08:20:20.059Z,965.56
2016-11-14T08:21:20.072Z,965.55
2016-11-14T08:22:20.083Z,965.55
2016-11-14T08:23:20.096Z,965.62
2016-11-14T08:24:20.108Z,965.62
2016-11-14T08:25:20.120Z,965.61
2016-11-14T08:26:20.133Z,965.66
2016-11-14T08:27:20.145Z,965.67
2016-11-14T08:28:20.156Z,965.68
2016-11-14T08:29:20.170Z,965.72
2016-11-14T08:30:20.181Z,965.67
2016-11-14T08:31:20.194Z,965.68
2016-11-14T08:32:20.207Z,965.71
2016-11-14T08:33:20.229Z,965.68
2016-11-14T08:34:20.232Z,965.7
2016-11-14T08:35:20.244Z,965.69
2016-11-14T08:36:20.256Z,965.68
2016-11-14T08:37:20.269Z,965.68
2016-11-14T08:38:20.281Z,965.66
2016-11-14T08:39:20.293Z,965.69
2016-11-14T08:40:20.305Z,965.7
2016-11-14T08:41:20.318Z,965.76
2016-11-14T08:42:20.332Z,965.69
2016-11-14T08:43:20.345Z,965.7
2016-11-14T08:44:20.355Z,965.71
2016-11-14T08:45:20.385Z,965.67
2016-11-14T08:46:20.381Z,965.7
2016-11-14T08:47:20.392Z,965.7
2016-11-14T08:48:20.404Z,965.72
2016-11-14T08:49:20.417Z,965.73
2016-11-14T08:50:20.429Z,965.76
2016-11-14T08:51:20.441Z,965.76
2016-11-14T08:52:20.456Z,965.78
2016-11-14T08:53:20.468Z,965.78
2016-11-14T08:54:20.479Z,965.8
2016-11-14T08:55:20.492Z,965.76
2016-11-14T08:56:20.504Z,965.73
2016-11-14T08:57:20.517Z,965.74
2016-11-14T08:58:20.529Z,965.75
2016-11-14T08:59:20.540Z,965.75
2016-11-14T09:00:20.554Z,965.78
2016-11-14T09:01:20.567Z,965.8
2016-11-14T09:02:20.579Z,965.72
2016-11-14T09:03:20.591Z,965.74
2016-11-14T09:04:20.610Z,965.71
2016-11-14T09:05:20.616Z,965.73
2016-11-14T09:06:20.638Z,965.77
2016-11-14T09:07:20.641Z,965.7
2016-11-14T09:08:20.655Z,965.77
2016-11-14T09:09:20.667Z,965.8
2016-11-14T09:10:20.680Z,965.8
2016-11-14T09:11:20.693Z,965.85
2016-11-14T09:12:20.704Z,965.85
2016-11-14T09:13:20.717Z,965.9
2016-11-14T09:14:20.730Z,965.9
2016-11-14T09:15:20.743Z,965.96
2016-11-14T09:16:20.755Z,965.96
2016-11-14T09:17:20.768Z,965.98
2016-11-14T09:18:20.781Z,965.99
2016-11-14T09:19:20.792Z,966
2016-11-14T09:20:20.805Z,966.07
2016-11-14T09:21:20.818Z,966.08
2016-11-14T09:22:20.832Z,966.05
2016-11-14T09:23:20.843Z,966.06
2016-11-14T09:24:20.860Z,966.1
2016-11-14T09:25:20.868Z,966.13
2016-11-14T09:26:20.881Z,966.13
2016-11-14T09:27:20.896Z,966.11
2016-11-14T09:28:20.925Z,966.13
2016-11-14T09:29:20.920Z,966.11
2016-11-14T09:30:20.932Z,966.11
2016-11-14T09:31:20.945Z,966.09
2016-11-14T09:32:20.959Z,966.1
2016-11-14T09:33:20.972Z,966.16
2016-11-14T09:34:20.984Z,966.21
2016-11-14T09:35:20.999Z,966.22
2016-11-14T09:36:21.011Z,966.22
2016-11-14T09:37:21.023Z,966.23
2016-11-14T09:38:21.035Z,966.24
2016-11-14T09:39:21.048Z,966.21
2016-11-14T09:40:21.060Z,966.23
2016-11-14T09:41:21.072Z,966.26
2016-11-14T09:42:21.197Z,966.26
2016-11-14T09:43:21.101Z,966.29
2016-11-14T09:44:21.112Z,966.3
2016-11-14T09:45:21.124Z,966.28
2016-11-14T09:46:21.137Z,966.3
2016-11-14T09:47:21.150Z,966.27
2016-11-14T09:48:21.163Z,966.27
2016-11-14T09:49:21.177Z,966.34
2016-11-14T09:50:21.188Z,966.35
2016-11-14T09:51:21.201Z,966.33
2016-11-14T09:52:21.214Z,966.35
2016-11-14T09:53:21.226Z,966.36
2016-11-14T09:54:21.238Z,966.31
2016-11-14T09:55:21.253Z,966.31
2016-11-14T09:56:21.265Z,966.32
2016-11-14T09:57:21.277Z,966.29
2016-11-14T09:58:21.291Z,966.3
2016-11-14T09:59:21.309Z,966.3
2016-11-14T10:00:21.317Z,966.32
2016-11-14T10:01:21.329Z,966.32
2016-11-14T10:02:21.341Z,966.32
2016-11-14T10:03:21.354Z,966.3
2016-11-14T10:04:21.370Z,966.34
2016-11-14T10:05:21.379Z,966.3
2016-11-14T10:06:21.392Z,966.31
2016-11-14T10:07:21.406Z,966.35
2016-11-14T10:08:21.419Z,966.34
2016-11-14T10:09:21.433Z,966.31
2016-11-14T10:10:21.449Z,966.32
2016-11-14T10:11:21.464Z,966.3
2016-11-14T10:12:21.470Z,966.33
2016-11-14T10:13:21.484Z,966.32
2016-11-14T10:14:21.496Z,966.35
2016-11-14T10:15:21.510Z,966.29
2016-11-14T10:16:21.521Z,966.23
2016-11-14T10:17:21.535Z,966.2
2016-11-14T10:18:21.547Z,966.18
2016-11-14T10:19:21.560Z,966.14
2016-11-14T10:20:21.573Z,966.1
2016-11-14T10:21:21.586Z,966.16
2016-11-14T10:22:21.598Z,966.12
2016-11-14T10:23:21.612Z,966.12
2016-11-14T10:24:21.626Z,966.11
2016-11-14T10:25:21.654Z,966.14
2016-11-14T10:26:21.650Z,966.13
2016-11-14T10:27:21.663Z,966.07
2016-11-14T10:28:21.677Z,966.11
2016-11-14T10:29:21.689Z,966.09
2016-11-14T10:30:21.702Z,966.22
2016-11-14T10:31:21.715Z,966.09
2016-11-14T10:32:21.730Z,966.1
2016-11-14T10:33:21.742Z,966.04
2016-11-14T10:34:21.755Z,966.03
2016-11-14T10:35:21.766Z,966.05
2016-11-14T10:36:21.780Z,965.98
2016-11-14T10:37:21.794Z,965.96
2016-11-14T10:38:21.808Z,966
2016-11-14T10:39:21.819Z,966
2016-11-14T10:40:21.833Z,965.96
2016-11-14T10:41:21.845Z,965.94
2016-11-14T10:42:21.859Z,965.91
2016-11-14T10:43:21.869Z,965.88
2016-11-14T10:44:21.883Z,965.87
2016-11-14T10:45:21.897Z,965.85
2016-11-14T10:46:21.908Z,965.82
2016-11-14T10:47:21.940Z,965.84
2016-11-14T10:48:21.934Z,965.84
2016-11-14T10:49:21.947Z,965.81
2016-11-14T10:50:21.961Z,965.75
2016-11-14T10:51:21.973Z,965.79
2016-11-14T10:52:21.987Z,965.81
2016-11-14T10:53:21.999Z,965.77
2016-11-14T10:54:22.021Z,965.72
2016-11-14T10:55:22.025Z,965.78
2016-11-14T10:56:22.039Z,965.79
2016-11-14T10:57:22.052Z,965.83
2016-11-14T10:58:22.064Z,965.82
2016-11-14T10:59:22.077Z,965.8
2016-11-14T11:00:22.089Z,965.77
2016-11-14T11:01:22.103Z,965.73
2016-11-14T11:02:22.116Z,965.74
2016-11-14T11:03:22.128Z,965.73
2016-11-14T11:04:22.142Z,965.75
2016-11-14T11:05:22.156Z,965.75
2016-11-14T11:06:22.169Z,965.78
2016-11-14T11:07:22.181Z,965.74
2016-11-14T11:08:22.194Z,965.74
2016-11-14T11:09:22.207Z,965.75
2016-11-14T11:10:22.221Z,965.79
2016-11-14T11:11:22.235Z,965.79
2016-11-14T11:12:22.247Z,965.74
2016-11-14T11:13:22.258Z,965.79
2016-11-14T11:14:22.273Z,965.78
2016-11-14T11:15:22.287Z,965.83
2016-11-14T11:16:22.299Z,965.84
2016-11-14T11:17:22.322Z,965.88
2016-11-14T11:18:22.325Z,965.85
2016-11-14T11:19:22.339Z,965.86
2016-11-14T11:20:22.351Z,965.82
2016-11-14T11:21:22.367Z,965.79
2016-11-14T11:22:22.378Z,965.8
2016-11-14T11:23:22.392Z,965.77
2016-11-14T11:24:22.403Z,965.78
2016-11-14T11:25:22.417Z,965.85
2016-11-14T11:26:22.430Z,965.78
2016-11-14T11:27:22.442Z,965.77
2016-11-14T11:28:22.456Z,965.8
2016-11-14T11:29:22.470Z,965.78
2016-11-14T11:30:22.483Z,965.83
2016-11-14T11:31:22.496Z,965.83
2016-11-14T11:32:22.509Z,965.84
2016-11-14T11:33:22.522Z,965.81
2016-11-14T11:34:22.535Z,965.82
2016-11-14T11:35:22.551Z,965.81
2016-11-14T11:36:22.562Z,965.82
2016-11-14T11:37:22.574Z,965.82
2016-11-14T11:38:22.586Z,965.8
2016-11-14T11:39:22.600Z,965.85
2016-11-14T11:40:22.613Z,965.84
2016-11-14T11:41:22.627Z,965.91
2016-11-14T11:42:22.640Z,965.88
2016-11-14T11:43:22.652Z,965.89
2016-11-14T11:44:22.668Z,965.9
2016-11-14T11:45:22.679Z,965.95
2016-11-14T11:46:22.692Z,965.91
2016-11-14T11:47:22.704Z,965.95
2016-11-14T11:48:22.718Z,965.89
2016-11-14T11:49:22.731Z,965.88
2016-11-14T11:50:22.744Z,965.91
2016-11-14T11:51:22.796Z,965.9
2016-11-14T11:52:22.770Z,965.91
2016-11-14T11:53:22.783Z,965.89
2016-11-14T11:54:22.796Z,965.9
2016-11-14T11:55:22.810Z,965.85
2016-11-14T11:56:22.821Z,965.86
2016-11-14T11:57:22.835Z,965.84
2016-11-14T11:58:22.848Z,965.8
2016-11-14T11:59:22.862Z,965.81
2016-11-14T12:00:22.874Z,965.87
2016-11-14T12:01:22.886Z,965.82
2016-11-14T12:02:22.902Z,965.85
2016-11-14T12:03:22.912Z,965.86
2016-11-14T12:04:22.926Z,965.86
2016-11-14T12:05:22.939Z,965.85
2016-11-14T12:06:22.957Z,965.87
2016-11-14T12:07:22.966Z,965.83
2016-11-14T12:08:22.977Z,965.83
2016-11-14T12:09:22.991Z,965.85
2016-11-14T12:10:23.005Z,965.82
2016-11-14T12:11:23.017Z,965.79
2016-11-14T12:12:23.034Z,965.79
2016-11-14T12:13:23.044Z,965.77
2016-11-14T12:14:23.059Z,965.76
2016-11-14T12:15:23.074Z,965.75
2016-11-14T12:16:23.083Z,965.7
2016-11-14T12:17:23.096Z,965.67
2016-11-14T12:18:23.193Z,965.67
2016-11-14T12:19:23.122Z,965.68
2016-11-14T12:20:23.144Z,965.71
2016-11-14T12:21:23.148Z,965.71
2016-11-14T12:22:23.161Z,965.72
2016-11-14T12:23:23.175Z,965.73
2016-11-14T12:24:23.188Z,965.68
2016-11-14T12:25:23.201Z,965.68
2016-11-14T12:26:23.214Z,965.7
2016-11-14T12:27:23.229Z,965.68
2016-11-14T12:28:23.241Z,965.68
2016-11-14T12:29:23.254Z,965.73
2016-11-14T12:30:23.267Z,965.79
2016-11-14T12:31:23.281Z,965.81